This is the latest recevied weather packets stored in our database for station/object WC0AA. If no packets are shown the sender has not sent any weather packets the latest 10 day(s).
| Time | Temp. | Humidity | Pressure | Rain* | Wind** | Luminosity | Snow |
|---|---|---|---|---|---|---|---|
| 1778341804 | 25° C | 36% | 1008.9 hPa | 0 mm | - | - | - |
| 1778340004 | 23.33° C | 43% | 1009.1 hPa | 0 mm | - | - | - |
| 1778332804 | 15.56° C | 72% | 1009.3 hPa | 0 mm | - | - | - |
| 1778328004 | 10° C | 88% | 1008.7 hPa | 0 mm | - | - | - |
| 1778326204 | 8.33° C | 93% | 1008.4 hPa | 0 mm | - | - | - |
| 1778324404 | 8.33° C | 93% | 1008.3 hPa | 0 mm | - | - | - |
| 1778323805 | 8.33° C | 93% | 1008.4 hPa | 0 mm | - | - | - |
| 1778321405 | 7.78° C | 93% | 1008.4 hPa | 0 mm | - | - | - |
| 1778319005 | 8.89° C | 88% | 1008.5 hPa | 0 mm | - | - | - |
| 1778316004 | 10.56° C | 82% | 1008.4 hPa | 0 mm | - | - | - |
| 1778313004 | 11.67° C | 80% | 1008.6 hPa | 0 mm | - | - | - |
| 1778308804 | 12.22° C | 76% | 1008.4 hPa | 0 mm | - | - | - |
| 1778308205 | 12.22° C | 75% | 1008.4 hPa | 0 mm | - | - | - |
| 1778304605 | 13.33° C | 72% | 1008.5 hPa | 0 mm | - | - | - |
| 1778301605 | 14.44° C | 68% | 1008.5 hPa | 0 mm | - | - | - |
| 1778298004 | 14.44° C | 70% | 1008.5 hPa | 0 mm | - | - | - |
| 1778292004 | 16.67° C | 59% | 1007.5 hPa | 0 mm | - | - | - |
| 1778283604 | 22.22° C | 46% | 1007.4 hPa | 0 mm | - | - | - |
| 1778281804 | 22.78° C | 44% | 1007.6 hPa | 0 mm | - | - | - |
| 1778277004 | 22.22° C | 49% | 1008.2 hPa | 0 mm | - | - | - |
| 1778276404 | 22.22° C | 50% | 1008.4 hPa | 0 mm | - | - | - |
| 1778274604 | 21.11° C | 54% | 1008.5 hPa | 0 mm | - | - | - |
| 1778269804 | 19.44° C | 58% | 1008.8 hPa | 0 mm | - | - | - |
| 1778265005 | 18.89° C | 53% | 1008.9 hPa | 0 mm | - | - | - |
| 1778261405 | 20° C | 55% | 1008.9 hPa | 0 mm | - | - | - |
* Rain latest hour (hover to see other rain measurements)
** Current wind speed in m/s (hover to see current wind gust speed)